Главная страница
METAR-TAF:

METAR-TAF

Аэропорты :

Эстерсунд-Frösön, Швеция

широта: 63-11N, долгота: 014-30E, высота над уровнем моря: 376 м

Текущие метеонаблюдения

Эта сводка был подготовлена 27 минут назад, в 19:20 UTC
Ветер 7 Узел от южный
Температура -5°C
Влажность 68%
Давление 994 hPa
Видимость 10 км и более
Нет облачности ниже 1500 м, и нет кучево-дождевой облачности

METAR: ESNZ 281920Z 19007KT CAVOK M05/M10 Q0994

Время: 20:47 (19:47 UTC)

Прогноз

Эта сводка был подготовлена 2 часа и 17 минут назад, в 17:30 UTC
Прогноз действительный с 28-го 18 UTC до 28-го 23 UTC
Ветер 7 Узел от южный
Видимость 10 км и более
Нет облачности ниже 1500 м, и нет кучево-дождевой облачности

TAF: ESNZ 281730Z 2818/2823 17007KT CAVOK

Метеонаблюдения и прогнозы для более 4000 аэропортов (сводки METAR и TAF).

Имеющиеся станции представлены на карте желтыми и красными точками.

Чтобы увидеть название станции, наведите на нее мышь.

Затем щелкните, чтобы увидеть метеонаблюдения и метеопрогнозы.

Управление картой: чтобы увеличить масштаб, щелкните зеленые кнопки с черным крестиком; чтобы уменьшить масштаб, щелкните зеленую кнопку с тире; для просмотра соседних карт щелкайте зеленые стрелки.


METAR-TAF: